createdAt,value
2019-03-24T00:01:41.380Z,70.60
2019-03-24T00:04:08.227Z,70.43
2019-03-24T00:06:37.799Z,70.57
2019-03-24T00:12:41.413Z,70.29
2019-03-24T00:15:11.805Z,70.50
2019-03-24T00:17:41.393Z,71.31
2019-03-24T00:20:12.003Z,71.70
2019-03-24T00:22:41.598Z,71.70
2019-03-24T00:25:11.575Z,71.48
2019-03-24T00:27:41.311Z,71.05
2019-03-24T00:30:13.547Z,70.88
2019-03-24T00:32:43.206Z,71.14
2019-03-24T00:35:13.095Z,71.12
2019-03-24T00:37:42.402Z,70.66
2019-03-24T00:40:13.396Z,71.17
2019-03-24T00:42:42.938Z,71.46
2019-03-24T00:45:13.104Z,71.37
2019-03-24T00:47:43.030Z,71.28
2019-03-24T00:50:13.577Z,71.64
2019-03-24T00:52:43.055Z,71.64
2019-03-24T00:55:15.148Z,72.11
2019-03-24T00:57:44.694Z,72.15
2019-03-24T01:03:05.534Z,72.09
2019-03-24T01:05:35.020Z,72.00
2019-03-24T01:08:04.640Z,72.10
2019-03-24T01:10:34.198Z,72.12
2019-03-24T01:13:03.755Z,72.83
2019-03-24T01:15:34.482Z,72.65
2019-03-24T01:18:04.185Z,72.81
2019-03-24T01:20:33.647Z,72.85
2019-03-24T01:23:03.566Z,72.62
2019-03-24T01:25:33.133Z,72.92
2019-03-24T01:28:02.675Z,72.89
2019-03-24T01:30:32.211Z,72.23
2019-03-24T01:33:01.976Z,72.22
2019-03-24T01:35:31.564Z,72.63
2019-03-24T01:38:01.067Z,72.78
2019-03-24T01:40:30.868Z,73.16
2019-03-24T01:43:00.540Z,73.42
2019-03-24T01:45:30.181Z,73.44
2019-03-24T01:47:59.737Z,73.23
2019-03-24T01:50:29.169Z,73.43
2019-03-24T01:52:58.640Z,73.49
2019-03-24T01:55:28.708Z,73.58
2019-03-24T01:57:57.919Z,72.92
2019-03-24T02:00:27.541Z,73.24
2019-03-24T02:02:57.001Z,73.34
2019-03-24T02:05:26.505Z,73.14
2019-03-24T02:07:56.016Z,73.22
2019-03-24T02:10:25.527Z,73.50
2019-03-24T02:12:54.985Z,73.43
2019-03-24T02:15:24.539Z,73.40
2019-03-24T02:17:53.998Z,73.98
2019-03-24T02:20:23.546Z,73.75
2019-03-24T02:22:52.885Z,73.60
2019-03-24T02:25:22.836Z,73.55
2019-03-24T02:27:52.364Z,73.65
2019-03-24T02:30:21.975Z,74.08
2019-03-24T02:32:51.519Z,74.26
2019-03-24T02:35:20.701Z,74.26
2019-03-24T02:37:50.360Z,74.22
2019-03-24T02:40:19.997Z,74.55
2019-03-24T02:42:49.618Z,74.73
2019-03-24T02:45:19.967Z,74.63
2019-03-24T02:47:49.551Z,74.38
2019-03-24T02:50:19.207Z,74.47
2019-03-24T02:52:48.569Z,73.98
2019-03-24T02:55:18.099Z,74.13
2019-03-24T02:57:47.676Z,74.49
2019-03-24T03:00:18.396Z,74.37
2019-03-24T03:02:48.041Z,74.34
2019-03-24T03:05:17.637Z,74.59
2019-03-24T03:07:47.265Z,74.48
2019-03-24T03:10:17.191Z,74.41
2019-03-24T03:12:47.839Z,74.36
2019-03-24T03:15:17.550Z,74.69
2019-03-24T03:17:46.851Z,74.92
2019-03-24T03:20:17.035Z,74.73
2019-03-24T03:22:46.517Z,75.13
2019-03-24T03:25:16.710Z,75.15
2019-03-24T03:27:46.250Z,75.43
2019-03-24T03:30:16.707Z,75.66
2019-03-24T03:32:46.151Z,75.37
2019-03-24T03:35:15.748Z,74.82
2019-03-24T03:37:45.328Z,74.46
2019-03-24T03:40:15.634Z,74.61
2019-03-24T03:42:45.189Z,74.48
2019-03-24T03:45:19.460Z,74.55
2019-03-24T03:47:49.052Z,75.17
2019-03-24T03:50:19.361Z,75.05
2019-03-24T03:53:28.902Z,75.12
2019-03-24T03:55:58.439Z,74.91
2019-03-24T03:58:27.915Z,74.73
2019-03-24T04:00:57.404Z,74.70
2019-03-24T04:03:27.037Z,74.94
2019-03-24T04:05:56.489Z,75.15
2019-03-24T04:08:25.992Z,74.89
2019-03-24T04:10:55.483Z,75.17
2019-03-24T04:13:24.942Z,75.24
2019-03-24T04:15:54.089Z,75.12
2019-03-24T04:18:23.680Z,74.95
2019-03-24T04:20:53.764Z,75.61
2019-03-24T04:23:22.940Z,76.07
2019-03-24T04:25:52.569Z,76.14
2019-03-24T04:28:21.896Z,75.60
2019-03-24T04:30:51.300Z,75.19
2019-03-24T04:33:20.777Z,75.67
2019-03-24T04:35:50.427Z,75.89
2019-03-24T04:38:19.989Z,75.80
2019-03-24T04:40:49.589Z,75.96
2019-03-24T04:43:19.056Z,76.34
2019-03-24T04:45:48.532Z,76.54
2019-03-24T04:48:18.001Z,76.71
2019-03-24T04:50:47.495Z,76.42
2019-03-24T04:53:17.042Z,76.36
2019-03-24T04:55:46.590Z,76.16
2019-03-24T04:58:16.069Z,76.28
2019-03-24T05:00:45.617Z,76.40
2019-03-24T05:03:15.226Z,76.58
2019-03-24T05:05:45.812Z,76.68
2019-03-24T05:08:15.751Z,76.80
2019-03-24T05:10:45.213Z,76.79
2019-03-24T05:13:14.820Z,77.49
2019-03-24T05:15:44.307Z,77.58
2019-03-24T05:18:13.704Z,77.31
2019-03-24T05:20:43.191Z,76.99
2019-03-24T05:23:12.758Z,77.23
2019-03-24T05:25:42.292Z,77.26
2019-03-24T05:28:11.864Z,76.85
2019-03-24T05:30:41.428Z,77.03
2019-03-24T05:33:10.977Z,77.38
2019-03-24T05:35:40.627Z,77.61
2019-03-24T05:38:10.554Z,78.07
2019-03-24T05:40:41.743Z,77.91
2019-03-24T05:43:11.449Z,77.77
2019-03-24T05:45:41.019Z,77.65
2019-03-24T05:48:11.031Z,77.54
2019-03-24T05:50:40.613Z,77.05
2019-03-24T05:53:10.363Z,77.15
2019-03-24T05:55:39.928Z,76.75
2019-03-24T05:58:09.595Z,76.45
2019-03-24T06:00:39.171Z,76.65
2019-03-24T06:03:08.844Z,76.06
2019-03-24T06:05:38.422Z,75.47
2019-03-24T06:08:08.339Z,75.26
2019-03-24T06:10:37.914Z,75.54
2019-03-24T06:13:07.895Z,75.04
2019-03-24T06:15:37.361Z,75.39
2019-03-24T06:18:07.048Z,74.84
2019-03-24T06:20:36.499Z,74.05
2019-03-24T06:23:06.079Z,73.96
2019-03-24T06:25:35.538Z,74.16
2019-03-24T06:28:05.315Z,73.67
2019-03-24T06:30:54.092Z,73.29
2019-03-24T06:33:23.594Z,72.39
2019-03-24T06:35:53.152Z,72.56
2019-03-24T06:38:22.752Z,72.32
2019-03-24T06:40:52.354Z,71.85
2019-03-24T06:43:23.936Z,71.73
2019-03-24T06:46:15.101Z,71.77
2019-03-24T06:49:04.615Z,71.30
2019-03-24T06:51:34.064Z,71.14
2019-03-24T06:54:05.417Z,70.94
2019-03-24T06:56:34.967Z,70.90
2019-03-24T06:59:04.611Z,70.86
2019-03-24T07:01:34.137Z,71.14
2019-03-24T07:04:03.807Z,70.26
2019-03-24T07:06:34.760Z,69.81
2019-03-24T07:09:06.196Z,70.30
2019-03-24T07:11:36.609Z,69.28
2019-03-24T07:14:06.349Z,69.43
2019-03-24T07:16:35.677Z,68.36
2019-03-24T07:19:05.423Z,67.89
2019-03-24T07:21:35.176Z,67.85
2019-03-24T07:24:04.810Z,68.07
2019-03-24T07:26:34.336Z,67.71
2019-03-24T07:29:03.826Z,67.22
2019-03-24T07:31:34.261Z,67.28
2019-03-24T07:34:03.759Z,66.94
2019-03-24T07:36:33.281Z,66.87
2019-03-24T07:39:02.776Z,66.37
2019-03-24T07:41:32.413Z,66.31
2019-03-24T07:44:01.912Z,65.33
2019-03-24T07:46:32.953Z,65.08
2019-03-24T07:49:02.463Z,64.44
2019-03-24T07:51:32.397Z,63.88
2019-03-24T07:54:01.964Z,63.22
2019-03-24T07:56:31.513Z,62.53
2019-03-24T07:59:01.184Z,63.33
2019-03-24T08:01:30.849Z,62.84
2019-03-24T08:04:00.580Z,61.97
2019-03-24T08:06:30.168Z,60.18
2019-03-24T08:08:59.778Z,60.16
2019-03-24T08:11:30.034Z,60.92
2019-03-24T08:13:59.804Z,61.14
2019-03-24T08:16:29.490Z,59.90
2019-03-24T08:18:59.108Z,58.48
2019-03-24T08:21:28.749Z,59.18
2019-03-24T08:23:58.271Z,59.56
2019-03-24T08:26:29.408Z,58.18
2019-03-24T08:29:01.585Z,58.59
2019-03-24T08:31:31.639Z,58.71
2019-03-24T08:34:01.187Z,58.75
2019-03-24T08:37:10.711Z,57.39
2019-03-24T08:39:40.349Z,55.80
2019-03-24T08:42:10.285Z,55.54
2019-03-24T08:44:39.863Z,57.05
2019-03-24T08:47:09.606Z,55.90
2019-03-24T08:49:39.117Z,57.51
2019-03-24T08:52:08.967Z,56.44
2019-03-24T08:54:38.466Z,57.37
2019-03-24T08:57:08.406Z,60.99
2019-03-24T09:02:33.995Z,58.57
2019-03-24T09:05:04.220Z,60.05
2019-03-24T09:07:33.686Z,61.62
2019-03-24T09:10:03.724Z,62.57
2019-03-24T09:12:33.297Z,61.01
2019-03-24T09:15:03.015Z,60.86
2019-03-24T09:17:32.646Z,57.94
2019-03-24T09:20:02.223Z,59.87
2019-03-24T09:22:31.683Z,60.48
2019-03-24T09:25:22.149Z,60.06
2019-03-24T09:27:51.673Z,59.95
2019-03-24T09:30:24.333Z,56.82
2019-03-24T09:33:14.642Z,56.93
2019-03-24T09:35:44.083Z,59.34
2019-03-24T09:38:13.552Z,58.45
2019-03-24T09:40:44.594Z,59.45
2019-03-24T09:43:14.573Z,59.69
2019-03-24T09:45:44.647Z,59.60
2019-03-24T09:48:14.302Z,58.54
2019-03-24T09:50:43.844Z,57.50
2019-03-24T09:53:13.312Z,59.22
2019-03-24T09:55:42.931Z,58.06
2019-03-24T09:58:52.465Z,56.27
2019-03-24T10:01:21.989Z,56.44
2019-03-24T10:03:51.929Z,57.36
2019-03-24T10:06:21.490Z,56.52
2019-03-24T10:08:51.088Z,55.50
2019-03-24T10:11:20.748Z,54.25
2019-03-24T10:13:50.315Z,54.45
2019-03-24T10:16:19.979Z,54.04
2019-03-24T10:18:49.543Z,54.03
2019-03-24T10:21:19.002Z,54.14
2019-03-24T10:23:49.022Z,53.32
2019-03-24T10:26:18.656Z,54.07
2019-03-24T10:28:48.155Z,54.15
2019-03-24T10:31:17.760Z,54.06
2019-03-24T10:33:47.291Z,55.55
2019-03-24T10:36:16.779Z,54.40
2019-03-24T10:38:46.245Z,55.90
2019-03-24T10:41:15.712Z,54.04
2019-03-24T10:43:46.332Z,52.76
2019-03-24T10:46:15.813Z,53.55
2019-03-24T10:48:45.365Z,54.82
2019-03-24T10:51:14.823Z,56.92
2019-03-24T10:53:44.450Z,55.41
2019-03-24T10:56:13.918Z,51.86
2019-03-24T10:58:43.277Z,50.46
2019-03-24T11:01:19.720Z,49.61
2019-03-24T11:03:49.748Z,48.89
2019-03-24T11:06:20.081Z,48.66
2019-03-24T11:08:49.949Z,49.07
2019-03-24T11:11:20.494Z,48.86
2019-03-24T11:13:50.882Z,49.97
2019-03-24T11:16:20.799Z,51.44
2019-03-24T11:18:50.398Z,50.67
2019-03-24T11:21:20.027Z,50.67
2019-03-24T11:23:49.689Z,51.39
2019-03-24T11:26:19.234Z,52.25
2019-03-24T11:28:48.865Z,51.57
2019-03-24T11:31:18.354Z,51.26
2019-03-24T11:33:47.861Z,51.73
2019-03-24T11:36:17.542Z,50.99
2019-03-24T11:38:47.029Z,52.48
2019-03-24T11:41:16.498Z,52.48
2019-03-24T11:43:46.114Z,52.07
2019-03-24T11:46:15.605Z,50.52
2019-03-24T11:48:44.829Z,50.82
2019-03-24T11:51:15.999Z,50.01
2019-03-24T11:53:45.613Z,49.91
2019-03-24T11:56:15.124Z,47.95
2019-03-24T11:58:44.664Z,48.32
2019-03-24T12:01:14.317Z,49.29
2019-03-24T12:03:43.539Z,49.34
2019-03-24T12:06:14.735Z,48.51
2019-03-24T12:08:44.045Z,48.48
2019-03-24T12:11:13.519Z,49.32
2019-03-24T12:13:43.000Z,50.07
2019-03-24T12:16:12.613Z,48.50
2019-03-24T12:18:42.147Z,47.80
2019-03-24T12:21:11.807Z,48.93
2019-03-24T12:23:41.537Z,49.87
2019-03-24T12:26:11.161Z,49.03
2019-03-24T12:28:40.788Z,49.38
2019-03-24T12:31:10.204Z,48.84
2019-03-24T12:33:39.856Z,48.51
2019-03-24T12:36:09.587Z,47.10
2019-03-24T12:38:39.058Z,48.05
2019-03-24T12:41:09.046Z,48.05
2019-03-24T12:43:38.508Z,46.41
2019-03-24T12:46:08.200Z,46.17
2019-03-24T12:48:37.670Z,46.46
2019-03-24T12:51:07.752Z,46.32
2019-03-24T12:53:37.225Z,46.32
2019-03-24T12:56:06.816Z,47.13
2019-03-24T12:58:36.379Z,48.08
2019-03-24T13:01:06.061Z,49.54
2019-03-24T13:03:35.959Z,48.91
2019-03-24T13:06:05.767Z,49.09
2019-03-24T13:08:35.295Z,48.92
2019-03-24T13:11:04.917Z,48.34
2019-03-24T13:13:34.392Z,49.15
2019-03-24T13:16:03.890Z,48.65
2019-03-24T13:18:33.358Z,48.65
2019-03-24T13:21:04.430Z,49.62
2019-03-24T13:23:33.907Z,48.90
2019-03-24T13:26:03.483Z,48.38
2019-03-24T13:28:33.032Z,48.50
2019-03-24T13:31:02.625Z,47.68
2019-03-24T13:33:32.227Z,46.96
2019-03-24T13:36:03.507Z,47.10
2019-03-24T13:38:32.842Z,46.48
2019-03-24T13:41:02.398Z,46.74
2019-03-24T13:43:31.768Z,46.89
2019-03-24T13:46:01.419Z,46.58
2019-03-24T13:48:31.053Z,47.02
2019-03-24T13:51:00.795Z,47.56
2019-03-24T13:53:30.336Z,47.49
2019-03-24T13:56:00.040Z,47.34
2019-03-24T13:58:29.627Z,47.67
2019-03-24T14:00:59.265Z,47.72
2019-03-24T14:03:28.865Z,48.84
2019-03-24T14:05:58.426Z,48.77
2019-03-24T14:08:27.978Z,49.22
2019-03-24T14:10:57.500Z,49.50
2019-03-24T14:13:28.294Z,50.24
2019-03-24T14:15:57.854Z,50.13
2019-03-24T14:18:28.240Z,50.22
2019-03-24T14:20:57.855Z,50.13
2019-03-24T14:23:27.410Z,50.50
2019-03-24T14:25:56.915Z,50.19
2019-03-24T14:28:26.449Z,48.81
2019-03-24T14:30:55.928Z,48.86
2019-03-24T14:33:25.443Z,48.87
2019-03-24T14:35:55.017Z,48.84
2019-03-24T14:38:24.579Z,49.14
2019-03-24T14:40:54.129Z,49.13
2019-03-24T14:43:23.641Z,49.49
2019-03-24T14:45:53.303Z,49.67
2019-03-24T14:48:36.261Z,49.40
2019-03-24T14:51:05.993Z,49.67
2019-03-24T14:53:35.736Z,49.72
2019-03-24T14:56:05.325Z,49.70
2019-03-24T14:58:34.816Z,49.58
2019-03-24T15:01:04.433Z,49.65
2019-03-24T15:03:33.924Z,49.00
2019-03-24T15:06:03.455Z,48.90
2019-03-24T15:08:33.020Z,49.32
2019-03-24T15:11:02.569Z,49.23
2019-03-24T15:13:32.130Z,49.65
2019-03-24T15:16:01.785Z,50.59
2019-03-24T15:18:31.528Z,50.08
2019-03-24T15:21:05.971Z,50.22
2019-03-24T15:23:32.527Z,50.46
2019-03-24T15:26:02.157Z,50.04
2019-03-24T15:28:31.892Z,50.03
2019-03-24T15:31:01.510Z,50.55
2019-03-24T15:33:31.763Z,50.86
2019-03-24T15:36:01.547Z,51.00
2019-03-24T15:38:31.091Z,51.00
2019-03-24T15:41:00.859Z,50.67
2019-03-24T15:43:30.506Z,50.09
2019-03-24T15:46:00.121Z,50.08
2019-03-24T15:48:29.779Z,49.89
2019-03-24T15:50:59.324Z,49.45
2019-03-24T15:53:29.024Z,49.78
2019-03-24T15:55:58.542Z,50.21
2019-03-24T15:58:28.028Z,50.06
2019-03-24T16:00:57.656Z,49.92
2019-03-24T16:03:27.393Z,50.19
2019-03-24T16:05:56.849Z,49.99
2019-03-24T16:08:26.346Z,49.83
2019-03-24T16:10:55.820Z,49.63
2019-03-24T16:13:25.358Z,50.35
2019-03-24T16:15:54.898Z,50.23
2019-03-24T16:18:24.441Z,50.61
2019-03-24T16:20:53.976Z,50.34
2019-03-24T16:23:23.549Z,50.90
2019-03-24T16:25:52.938Z,50.82
2019-03-24T16:28:23.118Z,50.88
2019-03-24T16:30:52.835Z,50.70
2019-03-24T16:33:22.404Z,50.93
2019-03-24T16:35:51.954Z,51.76
2019-03-24T16:38:21.511Z,51.71
2019-03-24T16:40:51.066Z,51.86
2019-03-24T16:43:20.714Z,51.99
2019-03-24T16:45:50.250Z,51.80
2019-03-24T16:48:22.248Z,51.95
2019-03-24T16:50:51.966Z,51.66
2019-03-24T16:53:21.611Z,51.73
2019-03-24T16:55:51.185Z,52.10
2019-03-24T16:58:20.776Z,51.48
2019-03-24T17:00:50.390Z,51.50
2019-03-24T17:03:20.049Z,51.52
2019-03-24T17:05:49.581Z,51.50
2019-03-24T17:08:19.217Z,51.02
2019-03-24T17:10:48.711Z,51.14
2019-03-24T17:13:18.173Z,51.58
2019-03-24T17:15:47.665Z,51.75
2019-03-24T17:18:17.202Z,51.98
2019-03-24T17:20:46.755Z,51.92
2019-03-24T17:23:16.299Z,52.29
2019-03-24T17:25:47.613Z,52.64
2019-03-24T17:28:17.708Z,52.70
2019-03-24T17:30:47.228Z,53.13
2019-03-24T17:33:16.761Z,53.03
2019-03-24T17:35:46.313Z,53.57
2019-03-24T17:38:15.823Z,53.75
2019-03-24T17:40:45.303Z,54.18
2019-03-24T17:43:14.747Z,54.30
2019-03-24T17:45:44.509Z,54.93
2019-03-24T17:48:14.088Z,55.11
2019-03-24T17:50:43.458Z,55.67
2019-03-24T17:53:12.933Z,55.96
2019-03-24T17:55:42.446Z,56.23
2019-03-24T17:58:12.077Z,56.41
2019-03-24T18:00:45.222Z,56.64
2019-03-24T18:03:14.818Z,57.12
2019-03-24T18:05:44.468Z,57.47
2019-03-24T18:08:14.151Z,57.86
2019-03-24T18:10:43.677Z,58.13
2019-03-24T18:13:13.212Z,58.43
2019-03-24T18:15:43.069Z,58.06
2019-03-24T18:18:12.301Z,58.28
2019-03-24T18:20:48.666Z,58.55
2019-03-24T18:23:18.153Z,58.82
2019-03-24T18:25:47.771Z,58.91
2019-03-24T18:28:17.394Z,58.74
2019-03-24T18:30:47.063Z,58.73
2019-03-24T18:33:17.428Z,58.89
2019-03-24T18:35:47.606Z,59.04
2019-03-24T18:38:19.090Z,59.11
2019-03-24T18:40:48.549Z,59.31
2019-03-24T18:43:18.138Z,59.00
2019-03-24T18:45:47.763Z,58.88
2019-03-24T18:48:17.383Z,58.38
2019-03-24T18:50:46.916Z,58.43
2019-03-24T18:53:16.381Z,58.55
2019-03-24T18:55:48.022Z,58.11
2019-03-24T18:58:17.561Z,58.41
2019-03-24T19:00:48.331Z,58.55
2019-03-24T19:03:17.797Z,57.55
2019-03-24T19:05:47.407Z,57.64
2019-03-24T19:08:16.913Z,57.30
2019-03-24T19:10:46.377Z,57.20
2019-03-24T19:13:16.027Z,56.80
2019-03-24T19:15:45.499Z,56.45
2019-03-24T19:18:15.053Z,57.05
2019-03-24T19:20:44.606Z,56.93
2019-03-24T19:23:16.014Z,56.54
2019-03-24T19:25:45.594Z,56.10
2019-03-24T19:28:15.223Z,55.70
2019-03-24T19:30:44.760Z,55.02
2019-03-24T19:33:14.645Z,54.85
2019-03-24T19:35:44.208Z,54.74
2019-03-24T19:38:13.912Z,55.04
2019-03-24T19:40:43.438Z,55.25
2019-03-24T19:43:13.449Z,54.45
2019-03-24T19:45:42.967Z,54.21
2019-03-24T19:48:13.148Z,54.21
2019-03-24T19:50:42.667Z,53.27
2019-03-24T19:53:12.886Z,53.19
2019-03-24T19:55:47.193Z,52.43
2019-03-24T19:58:16.541Z,52.65
2019-03-24T20:03:55.331Z,52.00
2019-03-24T20:06:24.956Z,51.55
2019-03-24T20:09:15.316Z,51.08
2019-03-24T20:11:44.997Z,50.57
2019-03-24T20:14:13.975Z,49.93
2019-03-24T20:16:43.346Z,49.08
2019-03-24T20:19:13.160Z,49.08
2019-03-24T20:21:42.757Z,48.57
2019-03-24T20:24:12.756Z,48.63
2019-03-24T20:26:42.237Z,48.57
2019-03-24T20:29:12.568Z,48.81
2019-03-24T20:31:42.046Z,48.12
2019-03-24T20:34:12.931Z,48.02
2019-03-24T20:36:42.620Z,47.71
2019-03-24T20:39:13.383Z,47.81
2019-03-24T20:41:42.953Z,47.85
2019-03-24T20:44:14.592Z,47.50
2019-03-24T20:47:04.907Z,47.43
2019-03-24T20:49:36.208Z,47.66
2019-03-24T20:52:05.657Z,47.18
2019-03-24T20:54:35.280Z,47.19
2019-03-24T20:57:04.935Z,46.79
2019-03-24T20:59:34.435Z,47.11
2019-03-24T21:02:04.031Z,47.26
2019-03-24T21:04:33.673Z,47.34
2019-03-24T21:07:03.280Z,47.84
2019-03-24T21:09:32.747Z,47.54
2019-03-24T21:12:42.247Z,47.41
2019-03-24T21:15:12.968Z,47.08
2019-03-24T21:17:42.556Z,46.71
2019-03-24T21:20:13.065Z,46.70
2019-03-24T21:22:42.525Z,47.04
2019-03-24T21:25:13.224Z,46.94
2019-03-24T21:27:42.368Z,45.66
2019-03-24T21:30:12.881Z,45.04
2019-03-24T21:32:42.497Z,45.32
2019-03-24T21:35:12.663Z,45.05
2019-03-24T21:37:42.025Z,45.11
2019-03-24T21:40:11.582Z,45.13
2019-03-24T21:42:41.216Z,45.33
2019-03-24T21:45:11.608Z,45.48
2019-03-24T21:47:41.206Z,44.92
2019-03-24T21:50:11.623Z,44.63
2019-03-24T21:52:42.691Z,43.60
2019-03-24T21:55:12.926Z,44.03
2019-03-24T21:57:42.451Z,43.86
2019-03-24T22:00:12.855Z,43.43
2019-03-24T22:02:42.419Z,43.80
2019-03-24T22:05:12.654Z,43.60
2019-03-24T22:07:42.120Z,42.91
2019-03-24T22:10:11.998Z,42.81
2019-03-24T22:12:43.752Z,42.89
2019-03-24T22:15:13.697Z,42.83
2019-03-24T22:17:43.166Z,43.52
2019-03-24T22:20:13.451Z,43.37
2019-03-24T22:23:03.786Z,43.91
2019-03-24T22:25:33.312Z,44.37
2019-03-24T22:28:02.876Z,45.00
2019-03-24T22:30:32.459Z,45.51
2019-03-24T22:33:02.058Z,45.66
2019-03-24T22:35:31.645Z,46.19
2019-03-24T22:38:01.355Z,46.31
2019-03-24T22:40:30.983Z,46.54
2019-03-24T22:43:00.627Z,46.90
2019-03-24T22:45:31.976Z,47.88
2019-03-24T22:48:01.651Z,47.63
2019-03-24T22:50:31.415Z,47.67
2019-03-24T22:53:00.939Z,47.59
2019-03-24T22:55:30.479Z,47.36
2019-03-24T22:58:00.122Z,47.10
2019-03-24T23:00:33.950Z,47.10
2019-03-24T23:03:03.379Z,46.57
2019-03-24T23:05:32.927Z,46.76
2019-03-24T23:08:02.371Z,46.86
2019-03-24T23:10:32.122Z,47.21
2019-03-24T23:13:02.825Z,47.10
2019-03-24T23:15:32.395Z,46.83
2019-03-24T23:18:02.095Z,47.40
2019-03-24T23:20:31.406Z,47.29
2019-03-24T23:23:01.084Z,46.87
2019-03-24T23:25:30.746Z,47.33
2019-03-24T23:28:00.318Z,47.41
2019-03-24T23:30:29.762Z,47.79
2019-03-24T23:32:59.758Z,48.27
2019-03-24T23:35:29.461Z,48.49
2019-03-24T23:38:00.459Z,48.79
2019-03-24T23:40:30.008Z,48.96
2019-03-24T23:42:59.899Z,48.89
2019-03-24T23:45:29.637Z,49.25
2019-03-24T23:47:58.792Z,49.50
2019-03-24T23:50:28.830Z,49.75
2019-03-24T23:52:58.350Z,50.34
2019-03-24T23:55:27.841Z,50.66
2019-03-24T23:58:41.160Z,50.68
